Time;durP1;ratioP1;P1;durP2;ratioP2;P2;SDS_P1;SDS_P2;PMS_P1;PMS_P2;Temp;Humidity;BMP_temperature;BMP_pressure;BME280_temperature;BME280_humidity;BME280_pressure;Samples;Min_cycle;Max_cycle;Signal;HPM_P1;HPM_P2
2023/12/25 00:01:51;;;;;;;;;;;14.60;67.00;;;;;;5094437;28;19958;-67
2023/12/25 00:04:16;;;;;;;;;;;14.60;67.00;;;;;;5094185;28;19947;-68
2023/12/25 00:06:42;;;;;;;;;;;14.70;67.00;;;;;;5094548;28;19966;-68
2023/12/25 00:09:07;;;;;;;;;;;14.60;67.00;;;;;;5094482;28;19923;-67
2023/12/25 00:11:39;;;;;;;;;;;14.60;67.10;;;;;;5094486;28;20263;-67
2023/12/25 00:14:04;;;;;;;;;;;14.60;67.00;;;;;;5094363;28;19915;-67
2023/12/25 00:16:30;;;;;;;;;;;14.60;67.00;;;;;;5112329;28;20386;-67
2023/12/25 00:18:55;;;;;;;;;;;14.60;67.00;;;;;;5112129;28;19927;-67
2023/12/25 00:21:21;;;;;;;;;;;14.70;67.00;;;;;;5094380;28;19923;-67
2023/12/25 00:23:46;;;;;;;;;;;14.60;67.00;;;;;;5093658;28;20295;-67
2023/12/25 00:26:12;;;;;;;;;;;14.60;67.00;;;;;;5094399;28;19973;-67
2023/12/25 00:28:38;;;;;;;;;;;14.60;67.00;;;;;;5094225;28;19916;-67
2023/12/25 00:31:03;;;;;;;;;;;14.70;67.00;;;;;;5095424;28;19923;-67
2023/12/25 00:33:29;;;;;;;;;;;14.60;66.90;;;;;;5097912;28;19916;-66
2023/12/25 00:35:54;;;;;;;;;;;14.60;66.90;;;;;;5097674;28;19915;-67
2023/12/25 00:38:20;;;;;;;;;;;14.60;66.90;;;;;;5116303;28;19962;-67
2023/12/25 00:40:45;;;;;;;;;;;14.60;66.90;;;;;;5097454;28;20003;-67
2023/12/25 00:43:11;;;;;;;;;;;14.60;66.90;;;;;;5097318;28;19962;-67
2023/12/25 00:45:39;;;;;;;;;;;14.60;66.90;;;;;;5097682;28;20018;-67
2023/12/25 00:48:05;;;;;;;;;;;14.60;66.90;;;;;;5097325;28;20041;-67
2023/12/25 00:50:30;;;;;;;;;;;14.60;66.90;;;;;;5097653;28;20014;-67
2023/12/25 00:52:56;;;;;;;;;;;14.60;66.90;;;;;;5097516;28;19916;-67
2023/12/25 00:55:21;;;;;;;;;;;14.60;66.90;;;;;;5097469;28;19926;-67
2023/12/25 00:57:47;;;;;;;;;;;14.60;66.90;;;;;;5097179;28;20390;-67
2023/12/25 01:00:13;;;;;;;;;;;14.60;66.80;;;;;;5097515;28;19923;-67
2023/12/25 01:02:38;;;;;;;;;;;14.60;66.80;;;;;;5115379;28;19916;-67
2023/12/25 01:05:04;;;;;;;;;;;14.60;66.80;;;;;;5096850;28;19920;-67
2023/12/25 01:07:29;;;;;;;;;;;14.60;66.80;;;;;;5097302;28;19915;-68
2023/12/25 01:09:55;;;;;;;;;;;14.60;66.90;;;;;;5115305;28;20290;-66
2023/12/25 01:12:20;;;;;;;;;;;14.60;66.80;;;;;;5096942;28;19923;-67
2023/12/25 01:14:46;;;;;;;;;;;14.60;66.80;;;;;;5097032;28;19916;-67
2023/12/25 01:17:12;;;;;;;;;;;14.60;66.80;;;;;;5096803;28;19931;-67
2023/12/25 01:19:37;;;;;;;;;;;14.60;66.80;;;;;;5114899;28;19939;-67
2023/12/25 01:22:03;;;;;;;;;;;14.60;66.80;;;;;;5114891;28;20002;-67
2023/12/25 01:24:28;;;;;;;;;;;14.60;66.80;;;;;;5096411;28;20003;-69
2023/12/25 01:26:54;;;;;;;;;;;14.60;66.80;;;;;;5096818;28;19933;-67
2023/12/25 01:29:19;;;;;;;;;;;14.60;66.80;;;;;;5096613;28;19919;-68
2023/12/25 01:31:48;;;;;;;;;;;14.60;66.80;;;;;;5096400;28;19915;-67
2023/12/25 01:34:13;;;;;;;;;;;14.60;66.80;;;;;;5096423;28;19915;-66
2023/12/25 01:36:40;;;;;;;;;;;14.60;66.80;;;;;;5096921;28;19922;-67
2023/12/25 01:39:05;;;;;;;;;;;14.60;66.80;;;;;;5096360;28;20419;-67
2023/12/25 01:41:31;;;;;;;;;;;14.60;66.80;;;;;;5114412;28;19919;-67
2023/12/25 01:43:56;;;;;;;;;;;14.60;66.90;;;;;;5096534;28;19919;-67
2023/12/25 01:46:22;;;;;;;;;;;14.60;66.80;;;;;;5096417;28;19919;-67
2023/12/25 01:48:50;;;;;;;;;;;14.60;66.80;;;;;;5096117;28;20010;-67
2023/12/25 01:51:16;;;;;;;;;;;14.60;66.90;;;;;;5114224;28;20286;-67
2023/12/25 01:53:42;;;;;;;;;;;14.60;66.80;;;;;;5096250;28;20390;-67
2023/12/25 01:56:07;;;;;;;;;;;14.60;66.80;;;;;;5114382;28;19978;-67
2023/12/25 01:58:33;;;;;;;;;;;14.60;66.90;;;;;;5114308;28;19916;-67
2023/12/25 02:00:58;;;;;;;;;;;14.60;66.90;;;;;;5095933;28;19955;-67
2023/12/25 02:03:24;;;;;;;;;;;14.60;66.90;;;;;;5113926;28;19959;-67
2023/12/25 02:05:50;;;;;;;;;;;14.60;67.60;;;;;;5096116;28;19923;-68
2023/12/25 02:08:16;;;;;;;;;;;14.60;66.90;;;;;;5095766;28;20293;-67
2023/12/25 02:10:41;;;;;;;;;;;14.60;66.90;;;;;;5095775;28;20409;-67
2023/12/25 02:13:07;;;;;;;;;;;14.60;66.80;;;;;;5113939;28;20017;-68
2023/12/25 02:15:33;;;;;;;;;;;14.60;66.80;;;;;;5113993;28;19959;-67
2023/12/25 02:17:59;;;;;;;;;;;14.60;66.90;;;;;;5114172;28;20248;-67
2023/12/25 02:20:24;;;;;;;;;;;14.60;66.80;;;;;;5095526;28;20362;-67
2023/12/25 02:22:50;;;;;;;;;;;14.60;66.80;;;;;;5091922;28;19920;-67
2023/12/25 02:25:32;;;;;;;;;;;14.50;66.70;;;;;;5093601;28;19920;-67
2023/12/25 02:27:58;;;;;;;;;;;14.60;66.80;;;;;;5093324;28;19923;-66
2023/12/25 02:30:24;;;;;;;;;;;14.60;66.80;;;;;;5075447;28;19994;-68
2023/12/25 02:32:50;;;;;;;;;;;14.60;66.80;;;;;;5093173;28;19916;-68
2023/12/25 02:35:15;;;;;;;;;;;14.60;66.80;;;;;;5075307;28;20286;-66
2023/12/25 02:37:41;;;;;;;;;;;14.60;66.80;;;;;;5093340;28;19916;-67
2023/12/25 02:40:07;;;;;;;;;;;14.50;66.70;;;;;;5093104;28;19916;-66
2023/12/25 02:42:32;;;;;;;;;;;14.60;66.80;;;;;;5093062;28;20391;-67
2023/12/25 02:44:58;;;;;;;;;;;14.60;66.70;;;;;;5074705;28;19919;-67
2023/12/25 02:47:23;;;;;;;;;;;14.60;66.70;;;;;;5074835;28;19965;-68
2023/12/25 02:49:49;;;;;;;;;;;14.60;66.70;;;;;;5074980;28;20057;-66
2023/12/25 02:52:14;;;;;;;;;;;14.60;66.70;;;;;;5092860;28;19973;-68
2023/12/25 02:54:40;;;;;;;;;;;14.50;66.70;;;;;;5074303;28;20416;-67
2023/12/25 02:57:05;;;;;;;;;;;14.60;66.70;;;;;;5074733;28;20348;-67
2023/12/25 02:59:31;;;;;;;;;;;14.60;66.70;;;;;;5074915;28;19959;-67
2023/12/25 03:01:56;;;;;;;;;;;14.60;66.70;;;;;;5075231;28;19916;-68
2023/12/25 03:04:22;;;;;;;;;;;14.60;66.70;;;;;;5074397;28;19963;-67
2023/12/25 03:06:47;;;;;;;;;;;14.60;66.70;;;;;;5074475;28;20057;-67
2023/12/25 03:09:13;;;;;;;;;;;14.60;66.60;;;;;;5074492;28;19916;-67
2023/12/25 03:11:38;;;;;;;;;;;14.60;66.70;;;;;;5092640;28;19977;-68
2023/12/25 03:14:04;;;;;;;;;;;14.60;66.70;;;;;;5092584;28;20317;-66
2023/12/25 03:16:29;;;;;;;;;;;14.60;66.60;;;;;;5074905;28;19923;-67
2023/12/25 03:18:55;;;;;;;;;;;14.60;66.60;;;;;;5074317;28;19916;-67
2023/12/25 03:21:21;;;;;;;;;;;14.50;66.50;;;;;;5092506;28;19969;-67
2023/12/25 03:23:46;;;;;;;;;;;14.60;66.60;;;;;;5085481;28;20235;-67
2023/12/25 03:26:12;;;;;;;;;;;14.50;66.50;;;;;;5094778;28;19946;-67
2023/12/25 03:28:38;;;;;;;;;;;14.50;66.50;;;;;;5094813;28;19922;-67
2023/12/25 03:31:03;;;;;;;;;;;14.50;66.50;;;;;;5094382;28;19923;-67
2023/12/25 03:33:29;;;;;;;;;;;14.50;66.50;;;;;;5094907;28;19916;-67
2023/12/25 03:35:54;;;;;;;;;;;14.60;66.50;;;;;;5112630;28;20358;-66
2023/12/25 03:38:20;;;;;;;;;;;14.60;66.50;;;;;;5112642;28;19915;-67
2023/12/25 03:40:46;;;;;;;;;;;14.60;66.40;;;;;;5094708;28;19919;-67
2023/12/25 03:43:11;;;;;;;;;;;14.60;66.50;;;;;;5094450;28;20450;-67
2023/12/25 03:45:37;;;;;;;;;;;14.50;66.40;;;;;;5094316;28;19923;-66
2023/12/25 03:48:03;;;;;;;;;;;14.50;66.40;;;;;;5094449;28;19937;-67
2023/12/25 03:50:28;;;;;;;;;;;14.60;66.40;;;;;;5094662;28;19915;-67
2023/12/25 03:52:54;;;;;;;;;;;14.60;66.40;;;;;;5094326;28;19969;-67
2023/12/25 03:55:19;;;;;;;;;;;14.50;66.30;;;;;;5094510;28;19915;-67
2023/12/25 03:57:45;;;;;;;;;;;14.50;66.30;;;;;;5112708;28;19916;-67
2023/12/25 04:00:10;;;;;;;;;;;14.50;66.70;;;;;;5094708;28;20419;-67
2023/12/25 04:02:36;;;;;;;;;;;14.50;66.30;;;;;;5112575;28;20427;-66
2023/12/25 04:05:02;;;;;;;;;;;14.50;66.30;;;;;;5094109;28;20397;-67
2023/12/25 04:07:27;;;;;;;;;;;14.60;66.40;;;;;;5098193;28;19915;-67
2023/12/25 04:09:53;;;;;;;;;;;14.60;66.30;;;;;;5098235;28;19915;-68
2023/12/25 04:12:19;;;;;;;;;;;14.60;66.30;;;;;;5098335;28;19984;-67
2023/12/25 04:14:44;;;;;;;;;;;14.50;66.30;;;;;;5098042;28;19916;-67
2023/12/25 04:17:10;;;;;;;;;;;14.60;66.30;;;;;;5098195;28;19939;-68
2023/12/25 04:19:35;;;;;;;;;;;14.60;66.30;;;;;;5098086;28;19922;-67
2023/12/25 04:22:01;;;;;;;;;;;14.60;66.30;;;;;;5116422;28;19938;-67
2023/12/25 04:24:26;;;;;;;;;;;14.50;66.30;;;;;;5097622;28;20290;-66
2023/12/25 04:26:52;;;;;;;;;;;14.50;66.20;;;;;;5097991;28;19916;-67
2023/12/25 04:29:17;;;;;;;;;;;14.50;66.20;;;;;;5097700;28;19959;-66
2023/12/25 04:31:43;;;;;;;;;;;14.60;66.30;;;;;;5115858;28;20006;-67
2023/12/25 04:34:08;;;;;;;;;;;14.60;66.30;;;;;;5097714;28;19922;-67
2023/12/25 04:36:34;;;;;;;;;;;14.50;66.30;;;;;;5097751;28;19937;-67
2023/12/25 04:39:00;;;;;;;;;;;14.50;66.30;;;;;;5097819;28;20331;-67
2023/12/25 04:41:25;;;;;;;;;;;14.50;66.20;;;;;;5097642;28;20014;-67
2023/12/25 04:43:51;;;;;;;;;;;14.60;66.30;;;;;;5115597;28;19946;-67
2023/12/25 04:46:19;;;;;;;;;;;14.50;66.30;;;;;;5097394;28;20376;-67
2023/12/25 04:48:45;;;;;;;;;;;14.50;66.20;;;;;;5097421;28;19951;-67
2023/12/25 04:51:11;;;;;;;;;;;14.50;66.30;;;;;;5097633;28;19973;-66
2023/12/25 04:53:36;;;;;;;;;;;14.50;66.20;;;;;;5115441;28;19997;-67
2023/12/25 04:56:02;;;;;;;;;;;14.50;66.20;;;;;;5115418;28;19926;-67
2023/12/25 04:58:31;;;;;;;;;;;14.50;66.30;;;;;;5097422;28;20158;-66
2023/12/25 05:00:56;;;;;;;;;;;14.50;66.30;;;;;;5097431;28;19915;-67
2023/12/25 05:03:25;;;;;;;;;;;14.50;66.20;;;;;;5097150;28;19931;-67
2023/12/25 05:05:51;;;;;;;;;;;14.50;66.30;;;;;;5097033;28;19915;-67
2023/12/25 05:08:18;;;;;;;;;;;14.50;66.20;;;;;;5097199;28;20065;-67
2023/12/25 05:10:43;;;;;;;;;;;14.50;66.20;;;;;;5097093;28;19923;-66
2023/12/25 05:13:09;;;;;;;;;;;14.50;66.20;;;;;;5115287;28;19915;-67
2023/12/25 05:15:35;;;;;;;;;;;14.50;66.20;;;;;;5115085;28;19915;-67
2023/12/25 05:18:01;;;;;;;;;;;14.50;66.20;;;;;;5114787;28;19961;-67
2023/12/25 05:20:26;;;;;;;;;;;14.50;66.20;;;;;;5115010;28;19989;-67
2023/12/25 05:22:52;;;;;;;;;;;14.50;66.20;;;;;;5114865;28;20003;-67
2023/12/25 05:25:18;;;;;;;;;;;14.50;66.20;;;;;;5115392;28;20015;-67
2023/12/25 05:27:43;;;;;;;;;;;14.50;66.20;;;;;;5096566;28;20370;-67
2023/12/25 05:30:10;;;;;;;;;;;14.50;66.20;;;;;;5096602;28;19923;-67
2023/12/25 05:32:36;;;;;;;;;;;14.50;66.20;;;;;;5079761;28;19955;-67
2023/12/25 05:35:04;;;;;;;;;;;14.50;66.20;;;;;;5114742;28;19920;-67
2023/12/25 05:37:29;;;;;;;;;;;14.50;66.20;;;;;;5096737;28;19938;-67
2023/12/25 05:39:55;;;;;;;;;;;14.50;66.20;;;;;;5096475;28;20355;-67
2023/12/25 05:42:21;;;;;;;;;;;14.50;66.20;;;;;;5114827;28;19967;-68
2023/12/25 05:44:49;;;;;;;;;;;14.60;66.20;;;;;;5096245;28;19920;-67
2023/12/25 05:47:15;;;;;;;;;;;14.50;66.20;;;;;;5096273;28;19916;-67
2023/12/25 05:49:40;;;;;;;;;;;14.50;66.10;;;;;;5096464;28;19915;-67
2023/12/25 05:52:06;;;;;;;;;;;14.50;66.10;;;;;;5114495;28;19916;-66
2023/12/25 05:54:31;;;;;;;;;;;14.50;66.20;;;;;;5114322;28;20367;-68
2023/12/25 05:56:57;;;;;;;;;;;14.50;66.10;;;;;;5096011;28;19916;-67
2023/12/25 05:59:23;;;;;;;;;;;14.50;66.10;;;;;;5095971;28;19916;-67
2023/12/25 06:01:48;;;;;;;;;;;14.50;66.10;;;;;;5079406;28;19941;-67
2023/12/25 06:04:17;;;;;;;;;;;14.50;66.10;;;;;;5096065;28;19926;-67
2023/12/25 06:06:42;;;;;;;;;;;14.50;66.10;;;;;;5095924;28;20013;-67
2023/12/25 06:09:10;;;;;;;;;;;14.50;66.10;;;;;;5114128;28;19915;-66
2023/12/25 06:11:35;;;;;;;;;;;14.50;66.10;;;;;;5096019;28;19915;-67
2023/12/25 06:14:01;;;;;;;;;;;14.50;66.10;;;;;;5095802;28;19916;-67
2023/12/25 06:16:27;;;;;;;;;;;14.50;66.10;;;;;;5113764;28;19931;-67
2023/12/25 06:18:52;;;;;;;;;;;14.50;66.10;;;;;;5113877;28;20451;-67
2023/12/25 06:21:18;;;;;;;;;;;14.50;66.10;;;;;;5095472;28;20377;-67
2023/12/25 06:23:43;;;;;;;;;;;14.50;66.00;;;;;;5095228;28;19919;-67
2023/12/25 06:26:09;;;;;;;;;;;14.50;66.00;;;;;;5095350;28;19960;-67
2023/12/25 06:28:34;;;;;;;;;;;14.50;66.00;;;;;;5112958;28;19968;-67
2023/12/25 06:31:00;;;;;;;;;;;14.50;66.00;;;;;;5113598;28;19922;-67
2023/12/25 06:33:25;;;;;;;;;;;14.50;66.00;;;;;;5095386;28;19915;-66
2023/12/25 06:35:51;;;;;;;;;;;14.50;66.00;;;;;;5095575;28;20109;-67
2023/12/25 06:38:17;;;;;;;;;;;14.50;65.90;;;;;;5113594;28;19916;-67
2023/12/25 06:40:42;;;;;;;;;;;14.50;66.00;;;;;;5095428;28;19965;-66
2023/12/25 06:43:08;;;;;;;;;;;14.50;66.00;;;;;;5094994;28;19923;-66
2023/12/25 06:45:34;;;;;;;;;;;14.50;66.00;;;;;;5113403;28;19922;-67
2023/12/25 06:48:00;;;;;;;;;;;14.50;66.00;;;;;;5095358;28;19916;-68
2023/12/25 06:50:29;;;;;;;;;;;14.50;66.00;;;;;;5095073;28;20324;-67
2023/12/25 06:52:54;;;;;;;;;;;14.50;66.00;;;;;;5113311;28;19915;-67
2023/12/25 06:55:20;;;;;;;;;;;14.50;65.90;;;;;;5113188;28;19916;-67
2023/12/25 06:57:45;;;;;;;;;;;14.50;66.00;;;;;;5095202;28;19923;-67
2023/12/25 07:00:11;;;;;;;;;;;14.50;66.00;;;;;;5113394;28;20393;-66
2023/12/25 07:02:37;;;;;;;;;;;14.50;66.00;;;;;;5113019;28;20385;-67
2023/12/25 07:05:04;;;;;;;;;;;14.50;66.00;;;;;;5113023;28;19924;-66
2023/12/25 07:07:30;;;;;;;;;;;14.50;65.90;;;;;;5095085;28;19922;-67
2023/12/25 07:09:55;;;;;;;;;;;14.50;65.90;;;;;;5094821;28;19916;-67
2023/12/25 07:12:21;;;;;;;;;;;14.50;65.90;;;;;;5094905;28;19916;-67
2023/12/25 07:14:47;;;;;;;;;;;14.50;65.90;;;;;;5094793;28;20235;-67
2023/12/25 07:17:12;;;;;;;;;;;14.50;66.00;;;;;;5094889;28;19915;-68
2023/12/25 07:19:38;;;;;;;;;;;14.50;65.90;;;;;;5094837;28;19923;-67
2023/12/25 07:22:04;;;;;;;;;;;14.50;65.90;;;;;;5094948;28;19915;-67
2023/12/25 07:24:30;;;;;;;;;;;14.50;65.90;;;;;;5094488;28;20282;-67
2023/12/25 07:26:56;;;;;;;;;;;14.50;65.90;;;;;;5094508;28;20006;-67
2023/12/25 07:29:22;;;;;;;;;;;14.50;65.90;;;;;;5095026;28;19983;-67
2023/12/25 07:31:47;;;;;;;;;;;14.50;65.90;;;;;;5094888;28;19942;-67
2023/12/25 07:34:13;;;;;;;;;;;14.50;65.90;;;;;;5113190;28;19938;-67
2023/12/25 07:36:39;;;;;;;;;;;14.50;65.90;;;;;;5094796;28;19919;-67
2023/12/25 07:39:05;;;;;;;;;;;14.50;65.90;;;;;;5112643;28;19982;-67
2023/12/25 07:41:31;;;;;;;;;;;14.50;65.90;;;;;;5098918;28;19919;-67
2023/12/25 07:44:00;;;;;;;;;;;14.40;65.80;;;;;;5116677;28;19965;-67
2023/12/25 07:46:26;;;;;;;;;;;14.50;65.90;;;;;;5117087;28;19941;-67
2023/12/25 07:48:51;;;;;;;;;;;14.50;65.80;;;;;;5098498;28;20126;-68
2023/12/25 07:51:17;;;;;;;;;;;14.50;65.80;;;;;;5098794;28;19916;-68
2023/12/25 07:53:42;;;;;;;;;;;14.50;65.90;;;;;;5116747;28;19922;-67
2023/12/25 07:56:08;;;;;;;;;;;14.50;65.90;;;;;;5098669;28;19923;-67
2023/12/25 07:58:35;;;;;;;;;;;14.50;65.90;;;;;;5098588;28;20269;-68
2023/12/25 08:01:01;;;;;;;;;;;14.40;65.80;;;;;;5081734;28;19941;-67
2023/12/25 08:03:27;;;;;;;;;;;14.40;65.80;;;;;;5098119;28;19920;-67
2023/12/25 08:05:52;;;;;;;;;;;14.40;65.80;;;;;;5116682;28;19939;-67
2023/12/25 08:08:18;;;;;;;;;;;14.50;65.80;;;;;;5116475;28;20259;-67
2023/12/25 08:10:43;;;;;;;;;;;14.40;65.80;;;;;;5116316;28;19915;-67
2023/12/25 08:13:09;;;;;;;;;;;14.40;65.70;;;;;;5098163;28;19916;-67
2023/12/25 08:15:35;;;;;;;;;;;14.40;65.70;;;;;;5097863;28;19922;-67
2023/12/25 08:18:00;;;;;;;;;;;14.40;65.70;;;;;;5097947;28;19916;-67
2023/12/25 08:20:29;;;;;;;;;;;14.40;65.70;;;;;;5098095;28;19915;-67
2023/12/25 08:22:54;;;;;;;;;;;14.40;65.70;;;;;;5097923;28;20354;-67
2023/12/25 08:25:20;;;;;;;;;;;14.40;65.60;;;;;;5097580;28;19927;-68
2023/12/25 08:27:45;;;;;;;;;;;14.40;65.70;;;;;;5097959;28;19917;-67
2023/12/25 08:30:11;;;;;;;;;;;14.50;65.80;;;;;;5115820;28;20302;-67
2023/12/25 08:32:37;;;;;;;;;;;14.40;65.70;;;;;;5098035;28;19916;-67
2023/12/25 08:35:03;;;;;;;;;;;14.40;65.60;;;;;;5097773;28;19915;-67
2023/12/25 08:37:29;;;;;;;;;;;14.40;65.60;;;;;;5097832;28;19915;-67
2023/12/25 08:39:54;;;;;;;;;;;14.40;65.60;;;;;;5116183;28;19930;-67
2023/12/25 08:42:20;;;;;;;;;;;14.40;65.60;;;;;;5097981;28;20007;-67
2023/12/25 08:44:45;;;;;;;;;;;14.40;65.60;;;;;;5097211;28;20294;-67
2023/12/25 08:47:11;;;;;;;;;;;14.40;65.60;;;;;;5097704;28;19920;-67
2023/12/25 08:49:37;;;;;;;;;;;14.40;65.60;;;;;;5097647;28;19922;-67
2023/12/25 08:52:03;;;;;;;;;;;14.40;65.60;;;;;;5096500;28;19919;-66
2023/12/25 08:54:29;;;;;;;;;;;14.40;65.60;;;;;;5115516;28;20251;-66
2023/12/25 08:56:54;;;;;;;;;;;14.40;65.60;;;;;;5097121;28;19922;-67
2023/12/25 08:59:23;;;;;;;;;;;14.40;65.60;;;;;;5097421;28;19915;-67
2023/12/25 09:01:48;;;;;;;;;;;14.40;65.60;;;;;;5115256;28;19916;-68
2023/12/25 09:04:14;;;;;;;;;;;14.40;65.50;;;;;;5097112;28;19920;-68
2023/12/25 09:06:42;;;;;;;;;;;14.40;65.50;;;;;;5115351;28;19961;-68
2023/12/25 09:09:09;;;;;;;;;;;14.40;65.50;;;;;;5097268;28;19938;-67
2023/12/25 09:11:35;;;;;;;;;;;14.40;65.60;;;;;;5096935;28;19930;-67
2023/12/25 09:14:01;;;;;;;;;;;14.40;65.50;;;;;;5096966;28;19915;-66
2023/12/25 09:16:27;;;;;;;;;;;14.30;65.50;;;;;;5097032;28;20375;-67
2023/12/25 09:18:54;;;;;;;;;;;14.40;65.50;;;;;;5096707;28;19919;-67
2023/12/25 09:21:20;;;;;;;;;;;14.40;65.50;;;;;;5096962;28;19923;-67
2023/12/25 09:23:46;;;;;;;;;;;14.40;65.50;;;;;;5114654;28;19920;-67
2023/12/25 09:26:19;;;;;;;;;;;14.40;65.50;;;;;;5097003;28;20370;-66
2023/12/25 09:28:45;;;;;;;;;;;14.40;65.50;;;;;;5096629;28;19919;-67
2023/12/25 09:31:11;;;;;;;;;;;14.40;65.50;;;;;;5096799;28;19915;-67
2023/12/25 09:33:37;;;;;;;;;;;14.40;65.50;;;;;;5114850;28;20286;-67
2023/12/25 09:36:02;;;;;;;;;;;14.40;65.50;;;;;;5096955;28;20363;-67
2023/12/25 09:38:28;;;;;;;;;;;14.40;65.50;;;;;;5114888;28;20359;-66
2023/12/25 09:40:55;;;;;;;;;;;14.40;65.50;;;;;;5096618;28;19915;-67
2023/12/25 09:43:21;;;;;;;;;;;14.40;65.50;;;;;;5114490;28;19922;-67
2023/12/25 09:45:48;;;;;;;;;;;14.40;65.50;;;;;;5096212;28;19915;-67
2023/12/25 09:48:20;;;;;;;;;;;14.40;65.50;;;;;;5114613;28;19954;-67
2023/12/25 09:50:45;;;;;;;;;;;14.40;65.40;;;;;;5114630;28;20104;-66
2023/12/25 09:53:11;;;;;;;;;;;14.40;65.50;;;;;;5096414;28;19915;-66
2023/12/25 09:55:37;;;;;;;;;;;14.40;65.50;;;;;;5096463;28;19916;-68
2023/12/25 09:58:04;;;;;;;;;;;14.40;65.50;;;;;;5114245;28;20378;-67
2023/12/25 10:00:30;;;;;;;;;;;14.40;65.50;;;;;;5114291;28;19915;-66
2023/12/25 10:02:55;;;;;;;;;;;14.40;65.50;;;;;;5095479;28;20381;-67
2023/12/25 10:05:21;;;;;;;;;;;14.40;65.40;;;;;;5113846;28;19974;-67
2023/12/25 10:07:48;;;;;;;;;;;14.40;65.40;;;;;;5096112;28;19922;-66
2023/12/25 10:10:16;;;;;;;;;;;14.40;65.40;;;;;;5114089;28;20409;-68
2023/12/25 10:12:42;;;;;;;;;;;14.40;65.50;;;;;;5095775;28;19950;-67
2023/12/25 10:15:08;;;;;;;;;;;14.40;65.50;;;;;;5095944;28;19916;-67
2023/12/25 10:17:33;;;;;;;;;;;14.40;65.40;;;;;;5113886;28;19915;-67
2023/12/25 10:19:59;;;;;;;;;;;14.40;65.40;;;;;;5095647;28;20437;-67
2023/12/25 10:22:29;;;;;;;;;;;14.40;65.40;;;;;;5095923;28;19915;-66
2023/12/25 10:24:55;;;;;;;;;;;14.40;65.40;;;;;;5075252;28;19920;-67
2023/12/25 10:27:21;;;;;;;;;;;14.40;65.40;;;;;;5075487;28;19916;-67
2023/12/25 10:29:50;;;;;;;;;;;14.40;65.40;;;;;;5075369;28;19916;-67
2023/12/25 10:32:17;;;;;;;;;;;14.40;65.50;;;;;;5093272;28;20378;-67
2023/12/25 10:34:42;;;;;;;;;;;14.40;65.40;;;;;;5075294;28;19920;-67
2023/12/25 10:37:08;;;;;;;;;;;14.40;65.40;;;;;;5075067;28;19978;-67
2023/12/25 10:39:33;;;;;;;;;;;14.40;65.30;;;;;;5075557;28;19923;-67
2023/12/25 10:42:02;;;;;;;;;;;14.40;65.40;;;;;;5093399;28;19926;-67
2023/12/25 10:44:28;;;;;;;;;;;14.40;65.40;;;;;;5093014;28;19920;-67
2023/12/25 10:46:54;;;;;;;;;;;14.40;65.30;;;;;;5093010;28;19967;-67
2023/12/25 10:49:20;;;;;;;;;;;14.40;65.30;;;;;;5075100;28;20363;-66
2023/12/25 10:51:46;;;;;;;;;;;14.40;65.30;;;;;;5074846;28;19923;-66
2023/12/25 10:54:13;;;;;;;;;;;14.40;65.30;;;;;;5075048;28;20016;-67
2023/12/25 10:56:40;;;;;;;;;;;14.40;66.10;;;;;;5074925;28;19930;-66
2023/12/25 10:59:10;;;;;;;;;;;14.40;65.30;;;;;;5075000;28;19916;-67
2023/12/25 11:01:37;;;;;;;;;;;14.40;65.30;;;;;;5074666;28;19951;-67
2023/12/25 11:04:03;;;;;;;;;;;14.40;65.30;;;;;;5093040;28;19969;-67
2023/12/25 11:06:28;;;;;;;;;;;14.40;65.30;;;;;;5074771;28;20283;-67
2023/12/25 11:08:54;;;;;;;;;;;14.40;65.30;;;;;;5074559;28;19916;-68
2023/12/25 11:11:20;;;;;;;;;;;14.40;65.30;;;;;;5092757;28;19969;-67
2023/12/25 11:13:46;;;;;;;;;;;14.40;65.30;;;;;;5074790;28;19916;-67
2023/12/25 11:16:11;;;;;;;;;;;14.40;65.30;;;;;;5074304;28;20290;-67
2023/12/25 11:18:40;;;;;;;;;;;14.40;65.30;;;;;;5074988;28;20402;-67
2023/12/25 11:21:07;;;;;;;;;;;14.40;65.30;;;;;;5074615;28;19922;-67
2023/12/25 11:23:34;;;;;;;;;;;14.40;65.20;;;;;;5074249;28;19924;-68
2023/12/25 11:26:03;;;;;;;;;;;14.40;65.20;;;;;;5074686;28;19920;-67
2023/12/25 11:28:31;;;;;;;;;;;14.40;65.30;;;;;;5074351;28;19951;-68
2023/12/25 11:30:57;;;;;;;;;;;14.40;65.20;;;;;;5092315;28;20473;-67
2023/12/25 11:33:22;;;;;;;;;;;14.40;65.20;;;;;;5092461;28;19963;-67
2023/12/25 11:35:48;;;;;;;;;;;14.40;65.20;;;;;;5074601;28;19923;-67
2023/12/25 11:41:00;;;;;;;;;;;14.40;65.20;;;;;;5110375;27;20093;-67
2023/12/25 11:43:25;;;;;;;;;;;14.40;65.20;;;;;;5109243;28;19924;-67
2023/12/25 11:45:53;;;;;;;;;;;14.40;65.20;;;;;;5109290;28;20433;-67
2023/12/25 11:48:18;;;;;;;;;;;14.40;65.20;;;;;;5109371;28;19928;-68
2023/12/25 11:50:44;;;;;;;;;;;14.40;65.20;;;;;;5110236;28;20367;-67
2023/12/25 11:53:33;;;;;;;;;;;14.40;65.20;;;;;;5110228;28;20002;-69
2023/12/25 11:55:59;;;;;;;;;;;14.40;65.20;;;;;;5108916;28;19942;-67
2023/12/25 11:58:24;;;;;;;;;;;14.40;65.20;;;;;;5108940;28;19927;-67
2023/12/25 12:00:50;;;;;;;;;;;14.40;65.20;;;;;;5108802;28;19924;-66
2023/12/25 12:03:16;;;;;;;;;;;14.40;65.20;;;;;;5108750;28;19920;-68
2023/12/25 12:05:43;;;;;;;;;;;14.40;65.20;;;;;;5109983;28;19947;-67
2023/12/25 12:08:09;;;;;;;;;;;14.40;65.20;;;;;;5109741;28;19924;-66
2023/12/25 12:10:35;;;;;;;;;;;14.40;65.20;;;;;;5108487;28;19927;-67
2023/12/25 12:13:00;;;;;;;;;;;14.40;65.20;;;;;;5108590;28;19920;-68
2023/12/25 12:15:26;;;;;;;;;;;14.40;65.20;;;;;;5109824;28;19920;-67
2023/12/25 12:17:51;;;;;;;;;;;14.40;65.20;;;;;;5108185;28;19920;-67
2023/12/25 12:20:17;;;;;;;;;;;14.40;65.20;;;;;;5109520;28;19924;-67
2023/12/25 12:22:42;;;;;;;;;;;14.40;65.20;;;;;;5108603;28;20009;-67
2023/12/25 12:25:12;;;;;;;;;;;14.50;65.30;;;;;;5109765;28;20374;-67
2023/12/25 12:27:38;;;;;;;;;;;14.40;65.20;;;;;;5108510;28;19924;-67
2023/12/25 12:30:05;;;;;;;;;;;14.40;65.20;;;;;;5108143;28;19973;-67
2023/12/25 12:32:30;;;;;;;;;;;14.40;65.20;;;;;;5142617;27;20003;-66
2023/12/25 12:34:58;;;;;;;;;;;14.40;65.30;;;;;;5108221;28;20019;-67
2023/12/25 12:37:24;;;;;;;;;;;14.40;65.20;;;;;;5109468;28;19965;-68
2023/12/25 12:39:50;;;;;;;;;;;14.40;65.20;;;;;;5120521;28;19988;-70
2023/12/25 12:42:16;;;;;;;;;;;14.40;65.30;;;;;;5111324;28;20386;-66
2023/12/25 12:44:51;;;;;;;;;;;14.40;65.20;;;;;;5129612;27;19920;-67
2023/12/25 12:47:17;;;;;;;;;;;14.40;65.30;;;;;;5145944;27;19931;-68
2023/12/25 12:49:42;;;;;;;;;;;14.40;65.30;;;;;;5111631;28;19920;-67
2023/12/25 12:52:08;;;;;;;;;;;14.40;65.30;;;;;;5116613;28;19927;-67
2023/12/25 12:54:33;;;;;;;;;;;14.40;65.30;;;;;;5115605;28;19967;-68
2023/12/25 12:56:59;;;;;;;;;;;14.40;65.30;;;;;;5115634;28;19948;-67
2023/12/25 12:59:25;;;;;;;;;;;14.40;65.30;;;;;;5097456;28;20008;-67
2023/12/25 13:01:51;;;;;;;;;;;14.40;65.30;;;;;;5097570;28;20012;-66
2023/12/25 13:04:19;;;;;;;;;;;14.40;65.30;;;;;;5097219;28;19920;-67
2023/12/25 13:06:45;;;;;;;;;;;14.40;65.30;;;;;;5115587;28;19920;-67
2023/12/25 13:09:11;;;;;;;;;;;14.40;65.30;;;;;;5097387;28;19934;-67
2023/12/25 13:11:37;;;;;;;;;;;14.40;65.40;;;;;;5097233;28;20436;-67
2023/12/25 13:14:02;;;;;;;;;;;14.40;65.30;;;;;;5096963;28;19920;-66
2023/12/25 13:16:28;;;;;;;;;;;14.40;65.40;;;;;;5097258;28;19965;-67
2023/12/25 13:18:53;;;;;;;;;;;14.40;65.40;;;;;;5096751;28;19931;-67
2023/12/25 13:21:19;;;;;;;;;;;14.40;65.40;;;;;;5096917;28;20018;-66
2023/12/25 13:23:45;;;;;;;;;;;14.40;65.40;;;;;;5115203;28;19920;-67
2023/12/25 13:26:10;;;;;;;;;;;14.40;65.40;;;;;;5115135;28;19920;-68
2023/12/25 13:28:40;;;;;;;;;;;14.40;65.40;;;;;;5115088;28;19920;-67
2023/12/25 13:31:05;;;;;;;;;;;14.40;65.40;;;;;;5115120;28;19927;-67
2023/12/25 13:33:31;;;;;;;;;;;14.40;65.40;;;;;;5115072;28;19926;-67
2023/12/25 13:35:57;;;;;;;;;;;14.40;65.40;;;;;;5096890;28;19970;-67
2023/12/25 13:38:23;;;;;;;;;;;14.40;65.40;;;;;;5114933;28;19926;-67
2023/12/25 13:40:50;;;;;;;;;;;14.40;65.50;;;;;;5096128;28;19928;-66
2023/12/25 13:43:15;;;;;;;;;;;14.40;65.50;;;;;;5096439;28;19919;-67
2023/12/25 13:45:41;;;;;;;;;;;14.40;65.40;;;;;;5096417;28;19972;-66
2023/12/25 13:48:06;;;;;;;;;;;14.40;65.50;;;;;;5114847;28;19920;-67
2023/12/25 13:50:32;;;;;;;;;;;14.40;65.50;;;;;;5114580;28;20472;-67
2023/12/25 13:52:58;;;;;;;;;;;14.40;65.50;;;;;;5096580;28;19919;-66
2023/12/25 13:55:23;;;;;;;;;;;14.40;65.60;;;;;;5096550;28;20472;-68
2023/12/25 13:57:49;;;;;;;;;;;14.40;65.50;;;;;;5114437;28;20371;-67
2023/12/25 14:00:15;;;;;;;;;;;14.40;65.60;;;;;;5096140;28;20016;-67
2023/12/25 14:02:40;;;;;;;;;;;14.40;65.50;;;;;;5113805;28;20370;-67
2023/12/25 14:05:06;;;;;;;;;;;14.40;65.50;;;;;;5115411;28;20439;-67
2023/12/25 14:07:32;;;;;;;;;;;14.40;65.50;;;;;;5096539;28;20319;-68
2023/12/25 14:09:57;;;;;;;;;;;14.40;65.50;;;;;;5096684;28;19962;-66
2023/12/25 14:12:23;;;;;;;;;;;14.40;65.50;;;;;;5114354;28;19920;-68